Time;durP1;ratioP1;P1;durP2;ratioP2;P2;SDS_P1;SDS_P2;PMS_P1;PMS_P2;Temp;Humidity;BMP_temperature;BMP_pressure;BME280_temperature;BME280_humidity;BME280_pressure;Samples;Min_cycle;Max_cycle;Signal;HPM_P1;HPM_P2
2020/12/04 00:01:05;;;;;;;3.10;2.28;;;0.30;99.90;;;;;;4408822;32;20133;-54
2020/12/04 00:03:31;;;;;;;8.38;0.90;;;0.30;99.90;;;;;;4406494;32;20125;-57
2020/12/04 00:05:56;;;;;;;0.70;0.70;;;0.30;99.90;;;;;;4392877;32;20077;-59
2020/12/04 00:08:22;;;;;;;0.70;0.70;;;0.20;99.90;;;;;;4386530;32;20523;-56
2020/12/04 00:10:48;;;;;;;1.17;1.05;;;0.20;99.90;;;;;;4402676;32;20082;-59
2020/12/04 00:13:14;;;;;;;0.50;0.50;;;0.20;99.90;;;;;;4407835;32;20109;-57
2020/12/04 00:15:39;;;;;;;1.17;0.80;;;0.20;99.90;;;;;;4392895;32;20070;-58
2020/12/04 00:18:05;;;;;;;1.20;1.10;;;0.20;99.90;;;;;;4405138;32;20512;-55
2020/12/04 00:20:33;;;;;;;5.12;1.15;;;0.20;99.90;;;;;;4403096;32;20082;-57
2020/12/04 00:22:59;;;;;;;1.58;1.48;;;0.20;99.90;;;;;;4404998;32;20508;-58
2020/12/04 00:25:24;;;;;;;0.85;0.85;;;0.30;99.90;;;;;;4401329;32;20127;-58
2020/12/04 00:27:49;;;;;;;1.52;1.42;;;0.20;99.90;;;;;;4401412;32;20058;-57
2020/12/04 00:30:15;;;;;;;0.80;0.80;;;0.20;99.90;;;;;;4403260;32;20121;-58
2020/12/04 00:32:41;;;;;;;1.10;1.05;;;0.10;99.90;;;;;;4404792;32;20063;-58
2020/12/04 00:35:06;;;;;;;0.80;0.80;;;0.10;99.90;;;;;;4401307;32;20129;-57
2020/12/04 00:37:32;;;;;;;2.72;1.58;;;0.10;99.90;;;;;;4401003;32;20065;-54
2020/12/04 00:39:57;;;;;;;1.05;1.05;;;0.10;99.90;;;;;;4400691;32;20117;-56
2020/12/04 00:42:23;;;;;;;0.60;0.60;;;0.10;99.90;;;;;;4400968;32;20063;-55
2020/12/04 00:44:48;;;;;;;0.98;0.98;;;0.10;99.90;;;;;;4387226;32;20122;-55
2020/12/04 00:47:14;;;;;;;2.85;1.85;;;0.10;99.90;;;;;;4400820;32;20058;-59
2020/12/04 00:49:39;;;;;;;1.95;1.80;;;0.10;99.90;;;;;;4400854;32;20503;-56
2020/12/04 00:52:05;;;;;;;0.88;0.88;;;0.10;99.90;;;;;;4403326;32;20077;-58
2020/12/04 00:54:30;;;;;;;1.08;1.00;;;0.10;99.90;;;;;;4403150;32;20070;-59
2020/12/04 00:56:56;;;;;;;0.40;0.40;;;0.10;99.90;;;;;;4402150;32;20488;-55
2020/12/04 00:59:21;;;;;;;0.62;0.62;;;0.10;99.90;;;;;;4386762;32;20082;-56
2020/12/04 01:01:47;;;;;;;0.88;0.88;;;0.00;99.90;;;;;;4401188;32;20528;-57
2020/12/04 01:04:12;;;;;;;6.00;1.80;;;-0.10;99.90;;;;;;4400266;32;20082;-58
2020/12/04 01:06:38;;;;;;;0.95;0.93;;;-0.10;99.90;;;;;;4400305;32;20062;-58
2020/12/04 01:09:05;;;;;;;0.75;0.70;;;0.10;99.90;;;;;;4400812;32;20090;-57
2020/12/04 01:11:31;;;;;;;0.45;0.45;;;0.20;99.90;;;;;;4378491;32;20055;-59
2020/12/04 01:13:58;;;;;;;0.95;0.95;;;0.10;99.90;;;;;;4387802;32;20471;-58
2020/12/04 01:16:23;;;;;;;3.40;0.70;;;0.10;99.90;;;;;;4391273;32;20476;-57
2020/12/04 01:18:49;;;;;;;1.48;1.15;;;0.10;99.90;;;;;;4400758;32;20093;-58
2020/12/04 01:21:14;;;;;;;0.82;0.82;;;0.10;99.90;;;;;;4399847;32;20117;-54
2020/12/04 01:23:40;;;;;;;0.50;0.50;;;0.00;99.90;;;;;;4400002;32;20078;-59
2020/12/04 01:26:06;;;;;;;2.75;1.73;;;0.00;99.90;;;;;;4386215;32;20121;-59
2020/12/04 01:28:32;;;;;;;4.05;1.75;;;-0.10;99.90;;;;;;4399863;32;20073;-57
2020/12/04 01:30:57;;;;;;;4.80;0.98;;;-0.10;99.90;;;;;;4399547;32;20133;-58
2020/12/04 01:33:23;;;;;;;1.08;1.00;;;-0.10;99.90;;;;;;4399556;32;20086;-57
2020/12/04 01:35:49;;;;;;;1.20;1.15;;;0.00;99.90;;;;;;4386774;32;20074;-59
2020/12/04 01:38:14;;;;;;;4.07;2.45;;;0.00;99.90;;;;;;4402499;32;20078;-59
2020/12/04 01:40:40;;;;;;;0.62;0.62;;;0.00;99.90;;;;;;4402956;32;20078;-58
2020/12/04 01:43:06;;;;;;;0.60;0.60;;;-0.10;99.90;;;;;;4389828;32;20413;-54
2020/12/04 01:45:35;;;;;;;2.17;1.50;;;-0.20;99.90;;;;;;4387916;32;20070;-55
2020/12/04 01:48:03;;;;;;;1.77;1.67;;;-0.20;99.90;;;;;;4401638;32;20074;-55
2020/12/04 01:50:29;;;;;;;1.17;0.90;;;-0.10;99.90;;;;;;4388802;32;20070;-58
2020/12/04 01:52:54;;;;;;;1.08;0.93;;;-0.10;99.90;;;;;;4388876;32;20086;-58
2020/12/04 01:55:20;;;;;;;1.67;1.58;;;-0.20;99.90;;;;;;4402657;32;20062;-54
2020/12/04 01:57:46;;;;;;;1.58;1.48;;;-0.20;99.90;;;;;;4402378;32;20070;-55
2020/12/04 02:00:12;;;;;;;0.45;0.45;;;-0.20;99.90;;;;;;4376686;32;20069;-54
2020/12/04 02:02:41;;;;;;;1.40;1.30;;;-0.20;99.90;;;;;;4389010;32;20090;-57
2020/12/04 02:05:06;;;;;;;0.93;0.93;;;-0.20;99.90;;;;;;4397449;32;20098;-57
2020/12/04 02:07:40;;;;;;;1.75;1.25;;;-0.20;99.90;;;;;;4402328;32;20069;-59
2020/12/04 02:10:12;;;;;;;3.62;1.40;;;-0.20;99.90;;;;;;4387844;32;20078;-57
2020/12/04 02:12:39;;;;;;;0.82;0.82;;;-0.10;99.90;;;;;;4403242;32;20133;-56
2020/12/04 02:15:05;;;;;;;0.65;0.65;;;-0.20;99.90;;;;;;4389957;32;20161;-58
2020/12/04 02:17:33;;;;;;;1.55;1.12;;;-0.10;99.90;;;;;;4402933;32;20116;-55
2020/12/04 02:19:59;;;;;;;0.62;0.62;;;-0.20;99.90;;;;;;4387963;32;20062;-58
2020/12/04 02:22:24;;;;;;;0.65;0.65;;;-0.20;99.90;;;;;;4389556;32;20521;-56
2020/12/04 02:24:53;;;;;;;0.57;0.57;;;-0.20;99.90;;;;;;4400179;32;20505;-59
2020/12/04 02:27:19;;;;;;;0.85;0.85;;;-0.20;99.90;;;;;;4400916;32;20057;-57
2020/12/04 02:29:45;;;;;;;0.50;0.50;;;-0.30;99.90;;;;;;4400361;32;20128;-57
2020/12/04 02:32:12;;;;;;;0.60;0.60;;;-0.30;99.90;;;;;;4401700;32;20078;-55
2020/12/04 02:34:38;;;;;;;1.15;1.15;;;-0.30;99.90;;;;;;4401264;32;20121;-56
2020/12/04 02:37:05;;;;;;;0.70;0.70;;;-0.10;99.90;;;;;;4405914;32;20082;-55
2020/12/04 02:39:30;;;;;;;0.60;0.60;;;-0.20;99.90;;;;;;4400654;32;20062;-58
2020/12/04 02:41:56;;;;;;;0.70;0.70;;;-0.30;99.90;;;;;;4402123;32;20070;-54
2020/12/04 02:44:22;;;;;;;1.77;1.27;;;-0.30;99.90;;;;;;4401797;32;20062;-56
2020/12/04 02:46:47;;;;;;;0.70;0.70;;;-0.20;99.90;;;;;;4401522;32;20518;-59
2020/12/04 02:49:13;;;;;;;1.17;1.08;;;-0.20;99.90;;;;;;4401873;32;20074;-56
2020/12/04 02:51:44;;;;;;;0.65;0.65;;;-0.20;99.90;;;;;;4402457;32;20134;-56
2020/12/04 02:54:09;;;;;;;1.25;1.23;;;-0.10;99.90;;;;;;4400401;32;20108;-59
2020/12/04 02:56:35;;;;;;;0.75;0.75;;;-0.10;99.90;;;;;;4400615;32;20073;-56
2020/12/04 02:59:00;;;;;;;0.50;0.50;;;-0.10;99.90;;;;;;4400700;32;20074;-59
2020/12/04 03:01:26;;;;;;;0.70;0.70;;;-0.10;99.90;;;;;;4401542;32;20062;-55
2020/12/04 03:03:51;;;;;;;6.43;1.85;;;-0.10;99.90;;;;;;4402178;32;20077;-57
2020/12/04 03:06:17;;;;;;;0.65;0.65;;;0.00;99.90;;;;;;4415293;32;20161;-54
2020/12/04 03:08:43;;;;;;;5.72;1.48;;;-0.10;99.90;;;;;;4415981;32;20078;-58
2020/12/04 03:11:09;;;;;;;6.35;1.52;;;-0.10;99.90;;;;;;4417029;32;20061;-58
2020/12/04 03:13:34;;;;;;;0.68;0.68;;;-0.10;99.90;;;;;;4410139;32;20543;-58
2020/12/04 03:16:00;;;;;;;1.67;1.12;;;-0.10;99.90;;;;;;4401902;32;20077;-55
2020/12/04 03:18:25;;;;;;;2.17;1.15;;;-0.10;99.90;;;;;;4403347;32;20465;-55
2020/12/04 03:20:51;;;;;;;0.70;0.70;;;-0.10;99.90;;;;;;4401735;32;20066;-58
2020/12/04 03:23:16;;;;;;;0.60;0.60;;;-0.10;99.90;;;;;;4402268;32;20082;-55
2020/12/04 03:25:42;;;;;;;1.55;1.45;;;-0.20;99.90;;;;;;4406702;32;20116;-55
2020/12/04 03:28:07;;;;;;;2.70;2.08;;;-0.20;99.90;;;;;;4379741;32;20121;-57
2020/12/04 03:30:35;;;;;;;4.65;1.75;;;-0.20;99.90;;;;;;4390834;32;20062;-56
2020/12/04 03:33:01;;;;;;;0.62;0.62;;;-0.20;99.90;;;;;;4394224;32;20066;-57
2020/12/04 03:35:27;;;;;;;0.70;0.70;;;-0.20;99.90;;;;;;4393400;32;20075;-57
2020/12/04 03:37:53;;;;;;;0.40;0.40;;;-0.20;99.90;;;;;;4400354;32;20062;-59
2020/12/04 03:40:18;;;;;;;0.80;0.80;;;-0.20;99.90;;;;;;4387930;32;20062;-56
2020/12/04 03:42:44;;;;;;;1.27;1.23;;;-0.20;99.90;;;;;;4372151;32;20117;-58
2020/12/04 03:45:09;;;;;;;1.75;1.35;;;-0.20;99.90;;;;;;4387069;32;20428;-54
2020/12/04 03:47:37;;;;;;;4.40;2.72;;;-0.20;99.90;;;;;;4391772;32;20095;-59
2020/12/04 03:50:03;;;;;;;1.55;1.12;;;-0.20;99.90;;;;;;4388148;32;20168;-59
2020/12/04 03:52:29;;;;;;;0.80;0.80;;;-0.20;99.90;;;;;;4388080;32;20133;-59
2020/12/04 03:54:54;;;;;;;0.68;0.68;;;-0.20;99.90;;;;;;4401177;32;20245;-59
2020/12/04 03:57:20;;;;;;;4.20;1.25;;;-0.20;99.90;;;;;;4400888;32;20135;-58
2020/12/04 03:59:45;;;;;;;1.35;1.25;;;-0.10;99.90;;;;;;4402706;32;20078;-56
2020/12/04 04:02:11;;;;;;;2.58;1.30;;;-0.10;99.90;;;;;;4401865;32;20639;-55
2020/12/04 04:04:36;;;;;;;0.60;0.60;;;-0.10;99.90;;;;;;4387223;32;20074;-55
2020/12/04 04:07:02;;;;;;;0.68;0.68;;;-0.10;99.90;;;;;;4399927;32;20070;-56
2020/12/04 04:09:28;;;;;;;0.82;0.77;;;0.00;99.90;;;;;;4400114;32;20078;-58
2020/12/04 04:11:53;;;;;;;12.40;1.75;;;0.00;99.90;;;;;;4401173;32;20069;-58
2020/12/04 04:14:19;;;;;;;0.40;0.40;;;0.00;99.90;;;;;;4403709;32;20095;-54
2020/12/04 04:16:45;;;;;;;0.60;0.60;;;0.10;99.90;;;;;;4400303;32;20094;-59
2020/12/04 04:19:10;;;;;;;0.60;0.60;;;0.10;99.90;;;;;;4400391;32;20516;-57
2020/12/04 04:21:39;;;;;;;0.80;0.80;;;0.10;99.90;;;;;;4401464;32;20070;-59
2020/12/04 04:24:05;;;;;;;0.73;0.70;;;0.00;99.90;;;;;;4393961;32;20166;-58
2020/12/04 04:26:31;;;;;;;3.40;1.05;;;-0.10;99.90;;;;;;4399636;32;20066;-57
2020/12/04 04:28:56;;;;;;;0.75;0.73;;;0.00;99.90;;;;;;4400375;32;20079;-58
2020/12/04 04:31:22;;;;;;;1.10;1.10;;;0.00;99.90;;;;;;4400384;32;20078;-55
2020/12/04 04:33:47;;;;;;;0.52;0.52;;;-0.10;99.90;;;;;;4401415;32;20577;-57
2020/12/04 04:36:13;;;;;;;2.08;1.48;;;0.00;99.90;;;;;;4400726;32;20066;-57
2020/12/04 04:38:38;;;;;;;0.70;0.70;;;0.00;99.90;;;;;;4400935;32;20065;-56
2020/12/04 04:41:04;;;;;;;0.80;0.80;;;0.00;99.90;;;;;;4400010;32;20073;-58
2020/12/04 04:43:29;;;;;;;10.98;2.50;;;0.00;99.90;;;;;;4400628;32;20090;-55
2020/12/04 04:46:07;;;;;;;1.17;1.15;;;0.00;99.90;;;;;;4400923;32;20121;-58
2020/12/04 04:48:33;;;;;;;0.52;0.52;;;0.00;99.90;;;;;;4398741;32;20074;-58
2020/12/04 04:50:59;;;;;;;0.40;0.40;;;0.00;99.90;;;;;;4400787;32;20079;-58
2020/12/04 04:53:25;;;;;;;7.15;1.92;;;0.10;99.90;;;;;;4399952;32;20069;-57
2020/12/04 04:55:51;;;;;;;1.23;1.12;;;0.10;99.90;;;;;;4398973;32;20062;-58
2020/12/04 04:58:17;;;;;;;0.70;0.70;;;0.10;99.90;;;;;;4399893;32;20125;-55
2020/12/04 05:00:43;;;;;;;0.52;0.52;;;0.10;99.90;;;;;;4400846;32;20125;-55
2020/12/04 05:03:09;;;;;;;4.78;2.67;;;0.10;99.90;;;;;;4400974;32;20077;-58
2020/12/04 05:05:51;;;;;;;0.85;0.85;;;0.10;99.90;;;;;;4399922;32;20067;-54
2020/12/04 05:08:22;;;;;;;1.05;1.05;;;0.00;99.90;;;;;;4400704;32;20066;-58
2020/12/04 05:10:48;;;;;;;0.73;0.73;;;0.10;99.90;;;;;;4401259;32;20074;-58
2020/12/04 05:13:18;;;;;;;0.40;0.40;;;0.10;99.90;;;;;;4406057;32;20495;-58
2020/12/04 05:15:44;;;;;;;0.95;0.95;;;0.10;99.90;;;;;;4405895;32;20545;-57
2020/12/04 05:18:12;;;;;;;0.50;0.50;;;0.00;99.90;;;;;;4405000;32;20070;-59
2020/12/04 05:20:44;;;;;;;1.40;1.23;;;0.00;99.90;;;;;;4403040;32;20086;-56
2020/12/04 05:23:10;;;;;;;0.40;0.40;;;0.00;99.90;;;;;;4398196;32;20070;-56
2020/12/04 05:25:41;;;;;;;0.60;0.60;;;0.10;99.90;;;;;;4381061;32;20468;-56
2020/12/04 05:28:13;;;;;;;0.75;0.75;;;0.10;99.90;;;;;;4391474;32;20090;-59
2020/12/04 05:30:40;;;;;;;0.73;0.73;;;0.10;99.90;;;;;;4380035;32;20070;-56
2020/12/04 05:33:06;;;;;;;1.65;1.52;;;0.20;99.90;;;;;;4392061;32;20426;-57
2020/12/04 05:35:32;;;;;;;1.50;1.40;;;0.20;99.90;;;;;;4404685;32;20062;-56
2020/12/04 05:38:08;;;;;;;0.50;0.50;;;0.30;99.90;;;;;;4404046;32;20094;-58
2020/12/04 05:40:36;;;;;;;0.40;0.40;;;0.30;99.90;;;;;;4405912;32;20087;-57
2020/12/04 05:43:02;;;;;;;0.82;0.80;;;0.40;99.90;;;;;;4390597;32;20074;-55
2020/12/04 05:45:28;;;;;;;0.50;0.50;;;0.40;99.90;;;;;;4403345;32;20124;-57
2020/12/04 05:47:54;;;;;;;0.73;0.73;;;0.30;99.90;;;;;;4405400;32;20089;-56
2020/12/04 05:50:19;;;;;;;0.88;0.82;;;0.30;99.90;;;;;;4405563;32;20073;-58
2020/12/04 05:52:48;;;;;;;0.40;0.40;;;0.30;99.90;;;;;;4403763;32;20116;-55
2020/12/04 05:55:15;;;;;;;1.05;1.00;;;0.40;99.90;;;;;;4393103;32;20065;-56
2020/12/04 05:58:00;;;;;;;0.75;0.75;;;0.40;99.90;;;;;;4390746;32;20125;-55
2020/12/04 06:00:25;;;;;;;0.60;0.60;;;0.50;99.90;;;;;;4404456;32;20075;-59
2020/12/04 06:03:00;;;;;;;0.88;0.68;;;0.50;99.90;;;;;;4392169;32;20070;-57
2020/12/04 06:05:26;;;;;;;0.77;0.77;;;0.50;99.90;;;;;;4369703;32;20066;-58
2020/12/04 06:07:58;;;;;;;0.60;0.60;;;0.50;99.90;;;;;;4395257;32;20074;-58
2020/12/04 06:10:24;;;;;;;2.90;1.67;;;0.60;99.90;;;;;;4390781;32;20116;-58
2020/12/04 06:12:52;;;;;;;0.88;0.88;;;0.60;99.90;;;;;;4401127;32;20070;-57
2020/12/04 06:15:35;;;;;;;14.05;1.95;;;0.60;99.90;;;;;;4388270;32;20073;-55
2020/12/04 06:18:04;;;;;;;0.80;0.80;;;0.60;99.90;;;;;;4389497;32;20368;-55
2020/12/04 06:20:47;;;;;;;0.50;0.50;;;0.50;99.90;;;;;;4394484;32;20062;-57
2020/12/04 06:23:15;;;;;;;1.90;1.55;;;0.60;99.90;;;;;;4377213;32;20133;-59
2020/12/04 06:25:58;;;;;;;1.15;0.93;;;0.70;99.90;;;;;;4394169;32;20168;-58
2020/12/04 06:28:34;;;;;;;1.95;1.55;;;0.70;99.90;;;;;;4396016;32;20461;-56
2020/12/04 06:31:05;;;;;;;0.57;0.57;;;0.70;99.90;;;;;;4384053;32;20086;-57
2020/12/04 06:33:31;;;;;;;;;;;0.80;99.90;;;;;;4361084;32;20290;-56
2020/12/04 06:35:57;;;;;;;1.05;1.05;;;0.80;99.90;;;;;;4381975;32;19970;-59
2020/12/04 06:38:38;;;;;;;0.80;0.57;;;0.90;99.90;;;;;;4394267;32;20058;-58
2020/12/04 06:41:20;;;;;;;0.80;0.80;;;1.00;99.90;;;;;;4397029;32;20453;-59
2020/12/04 06:43:47;;;;;;;0.52;0.52;;;1.00;99.90;;;;;;4388893;32;20187;-58
2020/12/04 06:46:31;;;;;;;1.35;1.25;;;0.90;99.90;;;;;;4394541;32;20449;-55
2020/12/04 06:52:07;;;;;;;0.50;0.50;;;1.00;99.90;;;;;;4393089;32;20050;-58
2020/12/04 06:54:36;;;;;;;3.72;1.30;;;0.90;99.90;;;;;;4396633;32;20070;-59
2020/12/04 06:57:02;;;;;;;0.60;0.60;;;1.00;99.90;;;;;;4391317;32;20181;-58
2020/12/04 06:59:32;;;;;;;0.45;0.45;;;0.90;99.90;;;;;;4395894;32;20062;-57
2020/12/04 07:02:14;;;;;;;0.60;0.60;;;0.90;99.90;;;;;;4384470;32;20069;-57
2020/12/04 07:04:45;;;;;;;1.05;0.95;;;1.00;99.90;;;;;;4395197;32;20086;-57
2020/12/04 07:07:28;;;;;;;0.73;0.73;;;1.10;99.90;;;;;;4396178;32;20062;-59
2020/12/04 07:10:03;;;;;;;0.68;0.68;;;1.00;99.90;;;;;;4392658;32;20062;-57
2020/12/04 07:12:30;;;;;;;1.73;1.17;;;1.10;99.90;;;;;;4395483;32;20053;-59
2020/12/04 07:14:57;;;;;;;1.12;1.05;;;1.10;99.90;;;;;;4398634;32;20121;-60
2020/12/04 07:17:25;;;;;;;4.40;1.10;;;1.20;99.90;;;;;;4392898;32;20414;-59
2020/12/04 07:19:53;;;;;;;6.93;2.72;;;1.30;99.90;;;;;;4395821;32;20078;-60
2020/12/04 07:22:20;;;;;;;0.47;0.47;;;1.30;99.90;;;;;;4395367;32;20085;-60
2020/12/04 07:24:47;;;;;;;15.20;1.85;;;1.30;99.90;;;;;;4390874;32;20924;-60
2020/12/04 07:27:16;;;;;;;0.47;0.47;;;1.40;99.90;;;;;;4373450;32;20417;-56
2020/12/04 07:29:42;;;;;;;2.70;1.45;;;1.40;99.90;;;;;;4392968;32;20087;-59
2020/12/04 07:32:08;;;;;;;0.62;0.62;;;1.40;99.90;;;;;;4383117;32;20057;-60
2020/12/04 07:34:38;;;;;;;1.70;1.52;;;1.50;99.90;;;;;;4397958;32;20062;-59
2020/12/04 07:37:05;;;;;;;2.17;1.58;;;1.60;99.90;;;;;;4395761;32;20174;-60
2020/12/04 07:39:32;;;;;;;1.58;1.45;;;1.60;99.90;;;;;;4391930;32;20146;-61
2020/12/04 07:41:59;;;;;;;1.27;1.17;;;1.60;99.90;;;;;;4381867;32;20046;-60
2020/12/04 07:44:29;;;;;;;1.17;1.08;;;1.50;99.90;;;;;;4397431;32;20066;-60
2020/12/04 07:47:00;;;;;;;2.25;1.73;;;1.50;99.90;;;;;;4393936;32;20070;-58
2020/12/04 07:49:27;;;;;;;0.93;0.93;;;1.40;99.90;;;;;;4392526;32;20351;-59
2020/12/04 07:51:52;;;;;;;0.35;0.35;;;1.50;99.90;;;;;;4393975;32;20065;-60
2020/12/04 07:54:21;;;;;;;0.88;0.88;;;1.50;99.90;;;;;;4398338;32;20074;-60
2020/12/04 07:56:52;;;;;;;0.50;0.50;;;1.50;99.90;;;;;;4385116;32;20124;-60
2020/12/04 07:59:26;;;;;;;1.40;1.05;;;1.50;99.90;;;;;;4397310;32;20066;-59
2020/12/04 08:01:51;;;;;;;0.93;0.93;;;1.60;99.90;;;;;;4383313;32;20059;-60
2020/12/04 08:04:18;;;;;;;2.12;1.20;;;1.60;99.90;;;;;;4396822;32;20372;-59
2020/12/04 08:06:45;;;;;;;1.05;1.02;;;1.80;99.90;;;;;;4383530;32;20057;-57
2020/12/04 08:09:14;;;;;;;0.70;0.70;;;1.70;99.90;;;;;;4382056;32;20121;-59
2020/12/04 08:11:52;;;;;;;2.05;1.67;;;1.80;99.90;;;;;;4381979;32;20170;-58
2020/12/04 08:14:27;;;;;;;6.90;1.17;;;1.80;99.90;;;;;;4392008;32;20148;-55
2020/12/04 08:16:54;;;;;;;1.02;0.98;;;1.90;99.90;;;;;;4379510;32;20085;-56
2020/12/04 08:19:24;;;;;;;1.67;1.33;;;1.90;99.90;;;;;;4379458;32;20062;-59
2020/12/04 08:22:08;;;;;;;1.33;1.17;;;1.90;99.90;;;;;;4382175;32;20087;-57
2020/12/04 08:24:39;;;;;;;1.45;1.02;;;1.90;99.90;;;;;;4394404;32;20085;-62
2020/12/04 08:27:07;;;;;;;1.33;1.10;;;2.00;99.90;;;;;;4385014;32;20070;-58
2020/12/04 08:29:34;;;;;;;0.85;0.85;;;2.00;99.90;;;;;;4383232;32;20113;-59
2020/12/04 08:32:06;;;;;;;1.12;1.00;;;2.10;99.90;;;;;;4381661;32;20108;-59
2020/12/04 08:34:31;;;;;;;0.75;0.75;;;2.20;99.90;;;;;;4390771;32;20110;-58
2020/12/04 08:36:58;;;;;;;0.75;0.70;;;2.20;99.90;;;;;;4380302;32;20075;-58
2020/12/04 08:39:35;;;;;;;1.37;1.02;;;2.30;99.90;;;;;;4389980;32;98639;-58
2020/12/04 08:42:22;;;;;;;0.68;0.68;;;2.30;99.90;;;;;;4368096;32;20132;-59
2020/12/04 08:45:06;;;;;;;0.85;0.85;;;2.30;99.90;;;;;;4379382;32;20201;-59
2020/12/04 08:47:38;;;;;;;0.73;0.73;;;2.30;99.90;;;;;;4381089;32;20070;-60
2020/12/04 08:50:08;;;;;;;6.32;1.27;;;2.40;99.90;;;;;;4369690;32;20054;-59
2020/12/04 08:52:36;;;;;;;0.70;0.70;;;2.50;99.90;;;;;;4374555;32;20826;-57
2020/12/04 08:55:06;;;;;;;0.88;0.88;;;2.60;99.90;;;;;;4379065;32;20238;-59
2020/12/04 08:57:32;;;;;;;0.50;0.50;;;2.70;99.90;;;;;;4392451;32;20057;-58
2020/12/04 08:59:58;;;;;;;1.55;0.82;;;2.80;99.90;;;;;;4394980;32;20453;-57
2020/12/04 09:02:23;;;;;;;1.92;1.52;;;2.90;99.90;;;;;;4395910;32;20091;-59
2020/12/04 09:04:49;;;;;;;0.65;0.65;;;2.90;99.90;;;;;;4396310;32;20074;-59
2020/12/04 09:07:17;;;;;;;1.23;1.12;;;3.00;99.90;;;;;;4399295;32;20070;-58
2020/12/04 09:09:43;;;;;;;2.17;1.10;;;3.10;99.90;;;;;;4396302;32;20536;-58
2020/12/04 09:12:08;;;;;;;1.08;1.02;;;3.10;99.90;;;;;;4392931;32;20086;-59
2020/12/04 09:14:34;;;;;;;1.73;1.20;;;3.30;99.90;;;;;;4398826;32;20074;-59
2020/12/04 09:16:59;;;;;;;1.87;0.82;;;3.20;99.90;;;;;;4392931;32;20078;-61
2020/12/04 09:19:24;;;;;;;1.87;1.65;;;3.20;99.90;;;;;;4394760;32;20136;-58
2020/12/04 09:21:50;;;;;;;0.60;0.60;;;3.30;99.90;;;;;;4396272;32;20740;-56
2020/12/04 09:24:16;;;;;;;0.60;0.55;;;3.20;99.90;;;;;;4390098;32;20090;-60
2020/12/04 09:26:41;;;;;;;1.27;1.17;;;3.10;99.90;;;;;;4393522;32;20539;-58
2020/12/04 09:29:06;;;;;;;1.12;1.08;;;3.10;99.90;;;;;;4393404;32;20081;-60
2020/12/04 09:31:33;;;;;;;2.83;1.23;;;3.20;99.90;;;;;;4397414;32;20121;-59
2020/12/04 09:33:58;;;;;;;0.50;0.50;;;3.30;99.90;;;;;;4392308;32;20078;-59
2020/12/04 09:36:24;;;;;;;0.80;0.77;;;3.40;99.90;;;;;;4390120;32;20063;-59
2020/12/04 09:38:49;;;;;;;0.70;0.70;;;3.40;99.90;;;;;;4393963;32;20123;-59
2020/12/04 09:41:15;;;;;;;1.15;1.05;;;3.50;99.90;;;;;;4391909;32;20065;-58
2020/12/04 09:43:40;;;;;;;3.80;1.20;;;3.50;99.90;;;;;;4392900;32;20074;-59
2020/12/04 09:46:06;;;;;;;1.73;1.10;;;3.50;99.90;;;;;;4395108;32;20067;-59
2020/12/04 09:48:31;;;;;;;0.73;0.73;;;3.40;99.90;;;;;;4395249;32;20078;-59
2020/12/04 09:50:57;;;;;;;0.50;0.50;;;3.30;99.90;;;;;;4393958;32;20123;-59
2020/12/04 09:53:23;;;;;;;0.70;0.70;;;3.30;99.90;;;;;;4390461;32;20127;-56
2020/12/04 09:55:49;;;;;;;1.20;1.08;;;3.40;99.90;;;;;;4395865;32;20074;-58
2020/12/04 09:58:14;;;;;;;2.85;2.10;;;3.40;99.90;;;;;;4394280;32;20508;-59
2020/12/04 10:00:40;;;;;;;3.50;1.05;;;3.30;99.90;;;;;;4391488;32;20074;-59
2020/12/04 10:03:06;;;;;;;2.72;0.98;;;3.40;99.90;;;;;;4391844;32;20067;-57
2020/12/04 10:05:31;;;;;;;0.98;0.95;;;3.50;99.90;;;;;;4396526;32;20081;-55
2020/12/04 10:07:56;;;;;;;0.80;0.80;;;3.60;99.90;;;;;;4389800;32;20069;-60
2020/12/04 10:10:23;;;;;;;1.23;1.12;;;3.60;99.90;;;;;;4388846;32;20062;-60
2020/12/04 10:12:49;;;;;;;0.55;0.55;;;3.50;99.90;;;;;;4392882;32;20074;-59
2020/12/04 10:15:14;;;;;;;0.65;0.65;;;3.50;99.90;;;;;;4393206;32;20066;-55
2020/12/04 10:17:39;;;;;;;4.05;0.93;;;3.40;99.90;;;;;;4393707;32;20132;-60
2020/12/04 10:20:05;;;;;;;0.90;0.90;;;3.50;99.90;;;;;;4398102;32;20073;-58
2020/12/04 10:22:30;;;;;;;0.80;0.80;;;3.60;99.90;;;;;;4393939;32;20090;-59
2020/12/04 10:24:57;;;;;;;1.15;1.05;;;3.60;99.90;;;;;;4387812;32;20114;-59
2020/12/04 10:27:22;;;;;;;1.00;1.00;;;3.60;99.90;;;;;;4394890;32;20129;-56
2020/12/04 10:29:49;;;;;;;2.20;1.55;;;3.70;99.90;;;;;;4396282;32;20110;-60
2020/12/04 10:32:14;;;;;;;2.80;1.35;;;3.70;99.90;;;;;;4396993;32;20066;-61
2020/12/04 10:34:41;;;;;;;1.00;1.00;;;3.80;99.90;;;;;;4379778;32;20066;-59
2020/12/04 10:37:06;;;;;;;1.52;1.42;;;3.80;99.90;;;;;;4392199;32;20086;-60
2020/12/04 10:39:32;;;;;;;2.37;0.88;;;3.70;99.90;;;;;;4397163;32;20058;-59
2020/12/04 10:41:58;;;;;;;4.03;1.80;;;3.80;99.90;;;;;;4394938;32;20378;-58
2020/12/04 10:44:23;;;;;;;0.90;0.90;;;3.90;99.90;;;;;;4397443;32;20121;-57
2020/12/04 10:46:49;;;;;;;0.70;0.70;;;3.90;99.90;;;;;;4396646;32;20135;-60
2020/12/04 10:49:14;;;;;;;2.72;0.93;;;4.00;99.90;;;;;;4398288;32;20065;-59
2020/12/04 10:51:40;;;;;;;1.37;1.27;;;4.00;99.90;;;;;;4395094;32;20441;-57
2020/12/04 10:54:05;;;;;;;2.72;1.42;;;4.00;99.90;;;;;;4396029;32;20121;-60
2020/12/04 10:56:31;;;;;;;1.23;1.15;;;4.10;99.90;;;;;;4381663;32;20066;-57
2020/12/04 10:58:56;;;;;;;0.40;0.40;;;4.20;99.90;;;;;;4397557;32;20825;-58
2020/12/04 11:01:43;;;;;;;0.73;0.73;;;4.20;99.90;;;;;;4396213;32;20501;-58
2020/12/04 11:05:41;;;;;;;11.88;1.75;;;4.30;99.90;;;;;;4382248;32;20102;-59
2020/12/04 11:06:55;;;;;;;1.98;1.10;;;4.30;99.90;;;;;;4384301;32;20080;-59
2020/12/04 11:09:20;;;;;;;1.83;1.35;;;4.30;99.90;;;;;;4390938;32;20066;-60
2020/12/04 11:11:46;;;;;;;1.27;1.02;;;4.40;99.90;;;;;;4396263;32;20079;-59
2020/12/04 11:14:12;;;;;;;0.90;0.90;;;4.40;99.90;;;;;;4396937;32;20129;-59
2020/12/04 11:16:41;;;;;;;0.60;0.60;;;4.30;99.90;;;;;;4393350;32;20197;-59
2020/12/04 11:19:06;;;;;;;1.40;0.85;;;4.40;99.90;;;;;;4364825;32;20057;-60
2020/12/04 11:21:32;;;;;;;1.25;1.15;;;4.50;99.90;;;;;;4387528;32;20259;-61
2020/12/04 11:23:57;;;;;;;0.55;0.55;;;4.60;99.90;;;;;;4390548;32;20103;-59
2020/12/04 11:26:23;;;;;;;22.17;2.58;;;4.60;99.90;;;;;;4393514;32;20174;-61
2020/12/04 11:28:49;;;;;;;0.68;0.65;;;4.50;99.90;;;;;;4373429;32;20082;-57
2020/12/04 11:31:14;;;;;;;0.45;0.45;;;4.50;99.90;;;;;;4394263;32;20055;-59
2020/12/04 11:33:40;;;;;;;4.22;1.35;;;4.50;99.90;;;;;;4395070;32;20091;-60
2020/12/04 11:36:05;;;;;;;0.82;0.82;;;4.60;99.90;;;;;;4393318;32;20106;-58
2020/12/04 11:38:31;;;;;;;1.10;1.00;;;4.80;99.90;;;;;;4397010;32;20166;-60
2020/12/04 11:40:56;;;;;;;0.68;0.68;;;4.90;99.90;;;;;;4398554;32;20125;-59
2020/12/04 11:43:22;;;;;;;1.15;0.90;;;5.00;99.90;;;;;;4394892;32;20070;-58
2020/12/04 11:45:47;;;;;;;0.90;0.90;;;5.10;99.90;;;;;;4393053;32;20117;-59
2020/12/04 11:48:13;;;;;;;1.15;1.05;;;5.30;99.90;;;;;;4378924;32;20086;-57
2020/12/04 11:50:38;;;;;;;1.17;0.98;;;5.50;99.90;;;;;;4395330;32;20122;-59
2020/12/04 11:53:04;;;;;;;0.50;0.50;;;5.50;99.90;;;;;;4397960;32;20070;-58
2020/12/04 11:55:29;;;;;;;0.55;0.55;;;5.50;99.90;;;;;;4392968;32;20091;-57
2020/12/04 11:57:55;;;;;;;0.50;0.50;;;5.30;99.90;;;;;;4385762;32;20879;-59
2020/12/04 12:00:20;;;;;;;1.27;1.00;;;5.30;99.90;;;;;;4393472;32;20082;-59
2020/12/04 12:02:46;;;;;;;0.50;0.50;;;5.40;99.90;;;;;;4395569;32;20484;-59
2020/12/04 12:05:12;;;;;;;1.17;0.95;;;5.30;99.90;;;;;;4401190;32;20067;-60
2020/12/04 12:07:38;;;;;;;1.35;1.05;;;5.40;99.90;;;;;;4382175;32;20089;-60
2020/12/04 12:10:04;;;;;;;0.85;0.85;;;5.30;99.90;;;;;;4390828;32;20066;-59
2020/12/04 12:12:29;;;;;;;0.77;0.77;;;5.30;99.90;;;;;;4393832;32;20071;-60
2020/12/04 12:14:55;;;;;;;0.50;0.37;;;5.40;99.90;;;;;;4394333;32;20560;-59
2020/12/04 12:17:20;;;;;;;0.40;0.40;;;5.30;99.90;;;;;;4379808;32;20095;-57
2020/12/04 12:19:46;;;;;;;0.62;0.62;;;5.20;99.90;;;;;;4394687;32;20162;-59
2020/12/04 12:22:11;;;;;;;0.82;0.82;;;5.30;99.90;;;;;;4395142;32;20090;-54
2020/12/04 12:24:38;;;;;;;0.93;0.80;;;5.20;99.90;;;;;;4391758;32;20571;-59
2020/12/04 12:27:05;;;;;;;0.93;0.90;;;5.30;99.90;;;;;;4394761;32;20536;-58
2020/12/04 12:29:31;;;;;;;0.57;0.57;;;5.20;99.90;;;;;;4395272;32;20092;-57
2020/12/04 12:31:57;;;;;;;0.82;0.82;;;5.20;99.90;;;;;;4381226;32;20112;-58
2020/12/04 12:34:59;;;;;;;3.35;1.17;;;5.20;99.90;;;;;;4391493;32;20236;-60
2020/12/04 12:37:08;;;;;;;3.00;0.90;;;5.20;99.90;;;;;;4390819;32;20086;-57
2020/12/04 12:39:33;;;;;;;2.47;0.98;;;5.10;99.90;;;;;;4391837;32;20185;-59
2020/12/04 12:42:00;;;;;;;2.37;1.33;;;5.10;99.90;;;;;;4394142;32;20124;-60
2020/12/04 12:44:25;;;;;;;0.73;0.73;;;5.20;99.90;;;;;;4390782;32;20087;-60
2020/12/04 12:46:51;;;;;;;0.85;0.60;;;5.10;99.90;;;;;;4390555;32;20855;-58
2020/12/04 12:49:16;;;;;;;2.53;0.90;;;5.10;99.90;;;;;;4395014;32;20128;-59
2020/12/04 12:51:42;;;;;;;0.65;0.65;;;5.10;99.90;;;;;;4390923;32;20085;-58
2020/12/04 12:54:07;;;;;;;0.68;0.68;;;5.20;99.90;;;;;;4392351;32;20449;-58
2020/12/04 12:56:33;;;;;;;0.77;0.77;;;5.20;99.90;;;;;;4389398;32;20086;-59
2020/12/04 12:58:58;;;;;;;0.50;0.50;;;5.20;99.90;;;;;;4385980;32;20058;-59